sensor_id;sensor_type;location;lat;lon;timestamp;pressure;altitude;pressure_sealevel;temperature;humidity
64908;BME280;69061;52.236;5.188;2023-12-20T00:00:14;101519.38;;;9.85;92.01
64908;BME280;69061;52.236;5.188;2023-12-20T00:02:41;101512.53;;;9.84;93.02
64908;BME280;69061;52.236;5.188;2023-12-20T00:05:12;101513.56;;;9.80;93.10
64908;BME280;69061;52.236;5.188;2023-12-20T00:07:39;101509.00;;;9.80;92.57
64908;BME280;69061;52.236;5.188;2023-12-20T00:10:08;101515.44;;;9.79;92.55
64908;BME280;69061;52.236;5.188;2023-12-20T00:12:35;101511.91;;;9.75;93.12
64908;BME280;69061;52.236;5.188;2023-12-20T00:15:02;101504.69;;;9.75;93.02
64908;BME280;69061;52.236;5.188;2023-12-20T00:17:29;101501.53;;;9.70;92.00
64908;BME280;69061;52.236;5.188;2023-12-20T00:19:55;101493.75;;;9.61;90.68
64908;BME280;69061;52.236;5.188;2023-12-20T00:22:22;101494.50;;;9.61;91.88
64908;BME280;69061;52.236;5.188;2023-12-20T00:24:49;101501.69;;;9.61;93.24
64908;BME280;69061;52.236;5.188;2023-12-20T00:27:17;101504.78;;;9.63;93.15
64908;BME280;69061;52.236;5.188;2023-12-20T00:29:44;101509.72;;;9.65;93.09
64908;BME280;69061;52.236;5.188;2023-12-20T00:32:14;101510.88;;;9.64;93.13
64908;BME280;69061;52.236;5.188;2023-12-20T00:34:41;101507.75;;;9.61;93.44
64908;BME280;69061;52.236;5.188;2023-12-20T00:37:07;101502.91;;;9.64;92.30
64908;BME280;69061;52.236;5.188;2023-12-20T00:39:34;101501.34;;;9.63;91.12
64908;BME280;69061;52.236;5.188;2023-12-20T00:42:01;101496.03;;;9.63;91.48
64908;BME280;69061;52.236;5.188;2023-12-20T00:44:29;101495.28;;;9.62;91.95
64908;BME280;69061;52.236;5.188;2023-12-20T00:46:55;101497.94;;;9.62;92.21
64908;BME280;69061;52.236;5.188;2023-12-20T00:49:23;101495.59;;;9.60;92.50
64908;BME280;69061;52.236;5.188;2023-12-20T00:51:50;101504.25;;;9.57;92.23
64908;BME280;69061;52.236;5.188;2023-12-20T00:54:18;101495.59;;;9.60;91.62
64908;BME280;69061;52.236;5.188;2023-12-20T00:56:46;101495.69;;;9.64;92.24
64908;BME280;69061;52.236;5.188;2023-12-20T00:59:16;101482.78;;;9.63;92.91
64908;BME280;69061;52.236;5.188;2023-12-20T01:01:44;101473.94;;;9.58;91.74
64908;BME280;69061;52.236;5.188;2023-12-20T01:04:11;101482.25;;;9.57;91.90
64908;BME280;69061;52.236;5.188;2023-12-20T01:06:37;101483.69;;;9.54;91.96
64908;BME280;69061;52.236;5.188;2023-12-20T01:09:04;101490.47;;;9.52;92.40
64908;BME280;69061;52.236;5.188;2023-12-20T01:11:31;101502.97;;;9.51;93.37
64908;BME280;69061;52.236;5.188;2023-12-20T01:13:58;101504.81;;;9.51;92.96
64908;BME280;69061;52.236;5.188;2023-12-20T01:16:24;101508.44;;;9.58;93.05
64908;BME280;69061;52.236;5.188;2023-12-20T01:18:54;101508.63;;;9.66;94.00
64908;BME280;69061;52.236;5.188;2023-12-20T01:21:20;101500.66;;;9.66;93.65
64908;BME280;69061;52.236;5.188;2023-12-20T01:23:47;101499.13;;;9.65;94.12
64908;BME280;69061;52.236;5.188;2023-12-20T01:26:14;101490.50;;;9.68;94.72
64908;BME280;69061;52.236;5.188;2023-12-20T01:28:40;101490.75;;;9.63;94.01
64908;BME280;69061;52.236;5.188;2023-12-20T01:31:07;101486.63;;;9.65;94.18
64908;BME280;69061;52.236;5.188;2023-12-20T01:33:33;101492.94;;;9.60;94.12
64908;BME280;69061;52.236;5.188;2023-12-20T01:36:02;101494.84;;;9.60;94.88
64908;BME280;69061;52.236;5.188;2023-12-20T01:38:28;101489.13;;;9.58;94.13
64908;BME280;69061;52.236;5.188;2023-12-20T01:40:55;101490.56;;;9.55;95.10
64908;BME280;69061;52.236;5.188;2023-12-20T01:43:22;101495.19;;;9.58;94.46
64908;BME280;69061;52.236;5.188;2023-12-20T01:45:49;101484.56;;;9.58;93.78
64908;BME280;69061;52.236;5.188;2023-12-20T01:48:16;101486.88;;;9.60;93.44
64908;BME280;69061;52.236;5.188;2023-12-20T01:50:44;101486.88;;;9.60;94.82
64908;BME280;69061;52.236;5.188;2023-12-20T01:53:13;101490.75;;;9.63;94.23
64908;BME280;69061;52.236;5.188;2023-12-20T01:55:41;101486.19;;;9.63;93.27
64908;BME280;69061;52.236;5.188;2023-12-20T01:58:09;101476.03;;;9.65;94.23
64908;BME280;69061;52.236;5.188;2023-12-20T02:00:36;101479.34;;;9.62;93.43
64908;BME280;69061;52.236;5.188;2023-12-20T02:03:04;101478.16;;;9.59;92.99
64908;BME280;69061;52.236;5.188;2023-12-20T02:05:31;101485.66;;;9.57;93.83
64908;BME280;69061;52.236;5.188;2023-12-20T02:07:58;101485.66;;;9.57;94.27
64908;BME280;69061;52.236;5.188;2023-12-20T02:10:27;101484.97;;;9.60;94.37
64908;BME280;69061;52.236;5.188;2023-12-20T02:12:55;101486.63;;;9.65;94.91
64908;BME280;69061;52.236;5.188;2023-12-20T02:15:21;101487.16;;;9.71;94.27
64908;BME280;69061;52.236;5.188;2023-12-20T02:17:49;101484.84;;;9.69;93.22
64908;BME280;69061;52.236;5.188;2023-12-20T02:20:16;101477.22;;;9.68;92.13
64908;BME280;69061;52.236;5.188;2023-12-20T02:22:44;101473.19;;;9.74;93.29
64908;BME280;69061;52.236;5.188;2023-12-20T02:25:10;101474.50;;;9.80;92.82
64908;BME280;69061;52.236;5.188;2023-12-20T02:27:38;101474.84;;;9.78;92.54
64908;BME280;69061;52.236;5.188;2023-12-20T02:30:06;101472.94;;;9.79;93.37
64908;BME280;69061;52.236;5.188;2023-12-20T02:32:33;101461.31;;;9.84;93.05
64908;BME280;69061;52.236;5.188;2023-12-20T02:34:59;101458.31;;;9.85;93.14
64908;BME280;69061;52.236;5.188;2023-12-20T02:37:26;101465.44;;;9.81;92.71
64908;BME280;69061;52.236;5.188;2023-12-20T02:39:54;101468.75;;;9.78;92.44
64908;BME280;69061;52.236;5.188;2023-12-20T02:42:20;101466.09;;;9.78;92.79
64908;BME280;69061;52.236;5.188;2023-12-20T02:44:47;101470.28;;;9.79;92.73
64908;BME280;69061;52.236;5.188;2023-12-20T02:47:14;101458.91;;;9.78;92.63
64908;BME280;69061;52.236;5.188;2023-12-20T02:49:41;101462.16;;;9.72;92.76
64908;BME280;69061;52.236;5.188;2023-12-20T02:52:08;101456.84;;;9.72;91.96
64908;BME280;69061;52.236;5.188;2023-12-20T02:54:35;101448.44;;;9.70;92.60
64908;BME280;69061;52.236;5.188;2023-12-20T02:57:04;101439.81;;;9.73;92.40
64908;BME280;69061;52.236;5.188;2023-12-20T02:59:32;101442.72;;;9.68;91.61
64908;BME280;69061;52.236;5.188;2023-12-20T03:01:59;101435.41;;;9.65;91.33
64908;BME280;69061;52.236;5.188;2023-12-20T03:04:26;101420.53;;;9.60;91.20
64908;BME280;69061;52.236;5.188;2023-12-20T03:06:54;101430.81;;;9.61;91.94
64908;BME280;69061;52.236;5.188;2023-12-20T03:09:20;101444.41;;;9.60;91.89
64908;BME280;69061;52.236;5.188;2023-12-20T03:11:47;101439.00;;;9.56;92.80
64908;BME280;69061;52.236;5.188;2023-12-20T03:14:15;101440.22;;;9.59;93.89
64908;BME280;69061;52.236;5.188;2023-12-20T03:16:42;101426.94;;;9.59;93.13
64908;BME280;69061;52.236;5.188;2023-12-20T03:19:13;101414.13;;;9.61;93.01
64908;BME280;69061;52.236;5.188;2023-12-20T03:21:39;101424.03;;;9.64;92.69
64908;BME280;69061;52.236;5.188;2023-12-20T03:24:06;101425.25;;;9.67;93.55
64908;BME280;69061;52.236;5.188;2023-12-20T03:26:33;101420.69;;;9.67;92.59
64908;BME280;69061;52.236;5.188;2023-12-20T03:28:59;101426.34;;;9.66;91.67
64908;BME280;69061;52.236;5.188;2023-12-20T03:31:27;101420.63;;;9.64;92.06
64908;BME280;69061;52.236;5.188;2023-12-20T03:33:54;101413.69;;;9.59;90.04
64908;BME280;69061;52.236;5.188;2023-12-20T03:36:20;101418.22;;;9.58;90.02
64908;BME280;69061;52.236;5.188;2023-12-20T03:38:47;101420.78;;;9.55;90.29
64908;BME280;69061;52.236;5.188;2023-12-20T03:41:14;101426.88;;;9.55;90.65
64908;BME280;69061;52.236;5.188;2023-12-20T03:43:41;101434.50;;;9.57;90.32
64908;BME280;69061;52.236;5.188;2023-12-20T03:46:08;101430.63;;;9.54;91.42
64908;BME280;69061;52.236;5.188;2023-12-20T03:48:39;101443.22;;;9.57;90.33
64908;BME280;69061;52.236;5.188;2023-12-20T03:51:05;101441.00;;;9.59;90.15
64908;BME280;69061;52.236;5.188;2023-12-20T03:53:33;101450.47;;;9.60;90.54
64908;BME280;69061;52.236;5.188;2023-12-20T03:56:00;101456.06;;;9.55;89.99
64908;BME280;69061;52.236;5.188;2023-12-20T03:58:26;101448.09;;;9.55;90.49
64908;BME280;69061;52.236;5.188;2023-12-20T04:00:53;101446.44;;;9.51;90.50
64908;BME280;69061;52.236;5.188;2023-12-20T04:03:19;101428.56;;;9.48;89.95
64908;BME280;69061;52.236;5.188;2023-12-20T04:05:47;101440.38;;;9.50;91.23
64908;BME280;69061;52.236;5.188;2023-12-20T04:08:14;101443.44;;;9.52;90.61
64908;BME280;69061;52.236;5.188;2023-12-20T04:10:41;101431.03;;;9.56;90.54
64908;BME280;69061;52.236;5.188;2023-12-20T04:13:08;101429.59;;;9.59;89.88
64908;BME280;69061;52.236;5.188;2023-12-20T04:15:34;101429.94;;;9.57;90.90
64908;BME280;69061;52.236;5.188;2023-12-20T04:18:01;101430.38;;;9.59;90.17
64908;BME280;69061;52.236;5.188;2023-12-20T04:20:30;101436.44;;;9.60;89.44
64908;BME280;69061;52.236;5.188;2023-12-20T04:22:58;101423.19;;;9.60;89.16
64908;BME280;69061;52.236;5.188;2023-12-20T04:25:25;101420.13;;;9.58;89.78
64908;BME280;69061;52.236;5.188;2023-12-20T04:27:51;101407.38;;;9.64;90.71
64908;BME280;69061;52.236;5.188;2023-12-20T04:30:18;101413.09;;;9.66;90.54
64908;BME280;69061;52.236;5.188;2023-12-20T04:32:45;101422.59;;;9.67;89.99
64908;BME280;69061;52.236;5.188;2023-12-20T04:35:12;101418.16;;;9.71;89.11
64908;BME280;69061;52.236;5.188;2023-12-20T04:37:38;101411.88;;;9.63;87.50
64908;BME280;69061;52.236;5.188;2023-12-20T04:40:07;101413.34;;;9.60;87.60
64908;BME280;69061;52.236;5.188;2023-12-20T04:42:34;101414.53;;;9.63;88.18
64908;BME280;69061;52.236;5.188;2023-12-20T04:45:01;101417.19;;;9.63;88.88
64908;BME280;69061;52.236;5.188;2023-12-20T04:47:28;101408.88;;;9.65;88.03
64908;BME280;69061;52.236;5.188;2023-12-20T04:49:55;101414.19;;;9.65;87.00
64908;BME280;69061;52.236;5.188;2023-12-20T04:52:23;101408.88;;;9.65;87.92
64908;BME280;69061;52.236;5.188;2023-12-20T04:54:49;101406.56;;;9.63;87.22
64908;BME280;69061;52.236;5.188;2023-12-20T04:57:18;101404.25;;;9.61;88.06
64908;BME280;69061;52.236;5.188;2023-12-20T04:59:46;101410.38;;;9.62;88.51
64908;BME280;69061;52.236;5.188;2023-12-20T05:02:12;101403.56;;;9.65;86.64
64908;BME280;69061;52.236;5.188;2023-12-20T05:04:39;101396.56;;;9.56;87.13
64908;BME280;69061;52.236;5.188;2023-12-20T05:07:06;101401.19;;;9.59;87.97
64908;BME280;69061;52.236;5.188;2023-12-20T05:09:33;101404.59;;;9.60;87.98
64908;BME280;69061;52.236;5.188;2023-12-20T05:12:00;101399.06;;;9.65;88.98
64908;BME280;69061;52.236;5.188;2023-12-20T05:14:27;101413.88;;;9.66;87.58
64908;BME280;69061;52.236;5.188;2023-12-20T05:16:53;101408.88;;;9.65;87.72
64908;BME280;69061;52.236;5.188;2023-12-20T05:19:20;101413.53;;;9.68;88.94
64908;BME280;69061;52.236;5.188;2023-12-20T05:21:47;101406.84;;;9.74;88.84
64908;BME280;69061;52.236;5.188;2023-12-20T05:24:13;101411.38;;;9.73;88.80
64908;BME280;69061;52.236;5.188;2023-12-20T05:26:40;101413.69;;;9.75;87.21
64908;BME280;69061;52.236;5.188;2023-12-20T05:29:07;101403.84;;;9.75;88.21
64908;BME280;69061;52.236;5.188;2023-12-20T05:31:35;101403.94;;;9.79;87.94
64908;BME280;69061;52.236;5.188;2023-12-20T05:34:02;101393.66;;;9.77;89.66
64908;BME280;69061;52.236;5.188;2023-12-20T05:36:28;101393.31;;;9.79;88.84
64908;BME280;69061;52.236;5.188;2023-12-20T05:38:55;101396.22;;;9.74;88.47
64908;BME280;69061;52.236;5.188;2023-12-20T05:41:23;101391.44;;;9.64;88.84
64908;BME280;69061;52.236;5.188;2023-12-20T05:43:49;101397.09;;;9.62;87.51
64908;BME280;69061;52.236;5.188;2023-12-20T05:46:16;101400.41;;;9.59;86.69
64908;BME280;69061;52.236;5.188;2023-12-20T05:48:44;101396.13;;;9.54;88.11
64908;BME280;69061;52.236;5.188;2023-12-20T05:51:11;101409.81;;;9.56;88.33
64908;BME280;69061;52.236;5.188;2023-12-20T05:53:39;101409.56;;;9.61;88.17
64908;BME280;69061;52.236;5.188;2023-12-20T05:56:05;101395.59;;;9.65;88.40
64908;BME280;69061;52.236;5.188;2023-12-20T05:58:32;101394.69;;;9.57;87.25
64908;BME280;69061;52.236;5.188;2023-12-20T06:00:59;101401.09;;;9.56;87.31
64908;BME280;69061;52.236;5.188;2023-12-20T06:03:26;101410.16;;;9.55;86.64
64908;BME280;69061;52.236;5.188;2023-12-20T06:05:54;101408.19;;;9.52;87.04
64908;BME280;69061;52.236;5.188;2023-12-20T06:08:20;101402.78;;;9.48;87.64
64908;BME280;69061;52.236;5.188;2023-12-20T06:10:47;101402.44;;;9.50;88.16
64908;BME280;69061;52.236;5.188;2023-12-20T06:13:14;101402.53;;;9.53;88.09
64908;BME280;69061;52.236;5.188;2023-12-20T06:15:41;101393.56;;;9.58;88.09
64908;BME280;69061;52.236;5.188;2023-12-20T06:18:07;101385.69;;;9.61;87.76
64908;BME280;69061;52.236;5.188;2023-12-20T06:20:35;101381.41;;;9.57;87.48
64908;BME280;69061;52.236;5.188;2023-12-20T06:23:03;101385.28;;;9.59;87.15
64908;BME280;69061;52.236;5.188;2023-12-20T06:25:30;101388.59;;;9.56;86.84
64908;BME280;69061;52.236;5.188;2023-12-20T06:27:56;101384.41;;;9.55;86.76
64908;BME280;69061;52.236;5.188;2023-12-20T06:30:23;101397.59;;;9.52;86.26
64908;BME280;69061;52.236;5.188;2023-12-20T06:32:50;101400.59;;;9.50;85.84
64908;BME280;69061;52.236;5.188;2023-12-20T06:35:18;101395.28;;;9.50;86.86
64908;BME280;69061;52.236;5.188;2023-12-20T06:37:46;101392.38;;;9.55;85.48
64908;BME280;69061;52.236;5.188;2023-12-20T06:40:14;101394.41;;;9.46;85.91
64908;BME280;69061;52.236;5.188;2023-12-20T06:42:41;101389.44;;;9.44;85.97
64908;BME280;69061;52.236;5.188;2023-12-20T06:45:09;101382.59;;;9.43;86.06
64908;BME280;69061;52.236;5.188;2023-12-20T06:47:35;101380.81;;;9.48;85.88
64908;BME280;69061;52.236;5.188;2023-12-20T06:50:02;101380.03;;;9.47;86.79
64908;BME280;69061;52.236;5.188;2023-12-20T06:52:29;101386.22;;;9.51;86.83
64908;BME280;69061;52.236;5.188;2023-12-20T06:54:55;101383.97;;;9.53;85.79
64908;BME280;69061;52.236;5.188;2023-12-20T06:57:25;101382.41;;;9.52;86.25
64908;BME280;69061;52.236;5.188;2023-12-20T06:59:52;101383.97;;;9.53;85.09
64908;BME280;69061;52.236;5.188;2023-12-20T07:02:18;101376.59;;;9.47;84.92
64908;BME280;69061;52.236;5.188;2023-12-20T07:04:46;101379.59;;;9.45;85.79
64908;BME280;69061;52.236;5.188;2023-12-20T07:07:12;101387.22;;;9.47;85.96
64908;BME280;69061;52.236;5.188;2023-12-20T07:09:39;101381.91;;;9.47;87.08
64908;BME280;69061;52.236;5.188;2023-12-20T07:12:08;101374.81;;;9.51;87.36
64908;BME280;69061;52.236;5.188;2023-12-20T07:14:36;101371.47;;;9.54;87.26
64908;BME280;69061;52.236;5.188;2023-12-20T07:17:03;101369.06;;;9.65;86.54
64908;BME280;69061;52.236;5.188;2023-12-20T07:19:29;101365.56;;;9.60;87.17
64908;BME280;69061;52.236;5.188;2023-12-20T07:21:56;101365.56;;;9.60;86.59
64908;BME280;69061;52.236;5.188;2023-12-20T07:24:22;101362.25;;;9.64;85.79
64908;BME280;69061;52.236;5.188;2023-12-20T07:26:49;101347.00;;;9.60;86.05
64908;BME280;69061;52.236;5.188;2023-12-20T07:29:16;101349.97;;;9.59;86.01
64908;BME280;69061;52.236;5.188;2023-12-20T07:31:44;101345.03;;;9.57;85.50
64908;BME280;69061;52.236;5.188;2023-12-20T07:34:10;101351.88;;;9.58;85.73
64908;BME280;69061;52.236;5.188;2023-12-20T07:36:37;101352.88;;;9.54;85.60
64908;BME280;69061;52.236;5.188;2023-12-20T07:39:03;101355.88;;;9.52;85.21
64908;BME280;69061;52.236;5.188;2023-12-20T07:41:30;101359.69;;;9.51;85.45
64908;BME280;69061;52.236;5.188;2023-12-20T07:43:56;101375.91;;;9.50;86.39
64908;BME280;69061;52.236;5.188;2023-12-20T07:46:24;101369.59;;;9.54;87.18
64908;BME280;69061;52.236;5.188;2023-12-20T07:48:52;101381.84;;;9.59;86.05
64908;BME280;69061;52.236;5.188;2023-12-20T07:51:19;101373.88;;;9.59;86.02
64908;BME280;69061;52.236;5.188;2023-12-20T07:53:46;101375.31;;;9.56;86.70
64908;BME280;69061;52.236;5.188;2023-12-20T07:56:14;101378.84;;;9.60;86.75
64908;BME280;69061;52.236;5.188;2023-12-20T07:58:40;101377.22;;;9.72;86.80
64908;BME280;69061;52.236;5.188;2023-12-20T08:01:07;101378.34;;;9.71;87.01
64908;BME280;69061;52.236;5.188;2023-12-20T08:03:34;101391.44;;;9.80;87.22
64908;BME280;69061;52.236;5.188;2023-12-20T08:06:02;101398.28;;;9.81;86.12
64908;BME280;69061;52.236;5.188;2023-12-20T08:08:29;101400.16;;;9.80;86.32
64908;BME280;69061;52.236;5.188;2023-12-20T08:10:56;101398.22;;;9.77;86.44
64908;BME280;69061;52.236;5.188;2023-12-20T08:13:25;101397.94;;;9.82;86.89
64908;BME280;69061;52.236;5.188;2023-12-20T08:15:52;101386.66;;;9.85;86.65
64908;BME280;69061;52.236;5.188;2023-12-20T08:18:22;101383.88;;;9.98;87.08
64908;BME280;69061;52.236;5.188;2023-12-20T08:20:50;101389.34;;;10.05;86.15
64908;BME280;69061;52.236;5.188;2023-12-20T08:23:19;101388.41;;;10.13;86.20
64908;BME280;69061;52.236;5.188;2023-12-20T08:25:46;101396.59;;;10.24;86.72
64908;BME280;69061;52.236;5.188;2023-12-20T08:28:13;101385.22;;;10.39;87.33
64908;BME280;69061;52.236;5.188;2023-12-20T08:30:40;101380.53;;;10.52;86.50
64908;BME280;69061;52.236;5.188;2023-12-20T08:33:07;101367.13;;;10.65;86.08
64908;BME280;69061;52.236;5.188;2023-12-20T08:35:36;101373.44;;;10.76;85.21
64908;BME280;69061;52.236;5.188;2023-12-20T08:38:03;101381.97;;;10.85;85.49
64908;BME280;69061;52.236;5.188;2023-12-20T08:40:31;101372.38;;;11.00;85.60
64908;BME280;69061;52.236;5.188;2023-12-20T08:42:58;101374.50;;;11.14;84.86
64908;BME280;69061;52.236;5.188;2023-12-20T08:45:25;101381.56;;;11.26;83.96
64908;BME280;69061;52.236;5.188;2023-12-20T08:47:51;101383.69;;;11.40;83.81
64908;BME280;69061;52.236;5.188;2023-12-20T08:50:18;101385.88;;;11.34;82.96
64908;BME280;69061;52.236;5.188;2023-12-20T08:52:44;101378.66;;;11.35;83.87
64908;BME280;69061;52.236;5.188;2023-12-20T08:55:11;101386.72;;;11.38;82.71
64908;BME280;69061;52.236;5.188;2023-12-20T08:57:39;101377.56;;;11.36;82.24
64908;BME280;69061;52.236;5.188;2023-12-20T09:00:07;101377.66;;;11.43;83.37
64908;BME280;69061;52.236;5.188;2023-12-20T09:02:34;101376.25;;;11.49;83.42
64908;BME280;69061;52.236;5.188;2023-12-20T09:05:03;101374.81;;;11.55;82.04
64908;BME280;69061;52.236;5.188;2023-12-20T09:07:30;101375.53;;;11.52;81.58
64908;BME280;69061;52.236;5.188;2023-12-20T09:09:57;101372.47;;;11.50;81.33
64908;BME280;69061;52.236;5.188;2023-12-20T09:12:24;101375.78;;;11.43;80.25
64908;BME280;69061;52.236;5.188;2023-12-20T09:14:52;101374.25;;;11.42;79.59
64908;BME280;69061;52.236;5.188;2023-12-20T09:17:19;101376.38;;;11.33;80.24
64908;BME280;69061;52.236;5.188;2023-12-20T09:19:46;101387.38;;;11.32;81.40
64908;BME280;69061;52.236;5.188;2023-12-20T09:22:12;101380.22;;;11.36;81.57
64908;BME280;69061;52.236;5.188;2023-12-20T09:24:39;101371.94;;;11.41;81.94
64908;BME280;69061;52.236;5.188;2023-12-20T09:27:05;101372.41;;;11.46;80.11
64908;BME280;69061;52.236;5.188;2023-12-20T09:29:32;101368.44;;;11.37;80.16
64908;BME280;69061;52.236;5.188;2023-12-20T09:32:00;101385.25;;;11.41;81.77
64908;BME280;69061;52.236;5.188;2023-12-20T09:34:27;101380.09;;;11.52;81.61
64908;BME280;69061;52.236;5.188;2023-12-20T09:36:54;101374.13;;;11.58;81.40
64908;BME280;69061;52.236;5.188;2023-12-20T09:39:21;101374.94;;;11.62;81.38
64908;BME280;69061;52.236;5.188;2023-12-20T09:42:00;101373.13;;;11.67;81.00
64908;BME280;69061;52.236;5.188;2023-12-20T09:44:26;101381.78;;;11.63;80.47
64908;BME280;69061;52.236;5.188;2023-12-20T09:46:55;101366.06;;;11.55;79.41
64908;BME280;69061;52.236;5.188;2023-12-20T09:49:23;101382.81;;;11.55;81.03
64908;BME280;69061;52.236;5.188;2023-12-20T09:51:53;101371.88;;;11.60;81.09
64908;BME280;69061;52.236;5.188;2023-12-20T09:54:21;101372.97;;;11.59;80.82
64908;BME280;69061;52.236;5.188;2023-12-20T09:56:48;101380.50;;;11.54;81.00
64908;BME280;69061;52.236;5.188;2023-12-20T09:59:15;101398.50;;;11.60;80.30
64908;BME280;69061;52.236;5.188;2023-12-20T10:01:42;101399.50;;;11.52;79.75
64908;BME280;69061;52.236;5.188;2023-12-20T10:04:10;101393.34;;;11.48;79.31
64908;BME280;69061;52.236;5.188;2023-12-20T10:06:40;101395.94;;;11.44;78.70
64908;BME280;69061;52.236;5.188;2023-12-20T10:09:08;101399.19;;;11.34;79.61
64908;BME280;69061;52.236;5.188;2023-12-20T10:11:35;101400.25;;;11.29;79.46
64908;BME280;69061;52.236;5.188;2023-12-20T10:14:03;101394.44;;;11.24;79.43
64908;BME280;69061;52.236;5.188;2023-12-20T10:16:30;101403.22;;;11.24;79.19
64908;BME280;69061;52.236;5.188;2023-12-20T10:18:58;101397.47;;;11.22;79.77
64908;BME280;69061;52.236;5.188;2023-12-20T10:21:26;101394.72;;;11.19;80.13
64908;BME280;69061;52.236;5.188;2023-12-20T10:23:54;101386.06;;;11.22;79.18
64908;BME280;69061;52.236;5.188;2023-12-20T10:26:22;101376.94;;;11.23;81.02
64908;BME280;69061;52.236;5.188;2023-12-20T10:28:50;101384.78;;;11.35;79.77
64908;BME280;69061;52.236;5.188;2023-12-20T10:31:29;101385.19;;;11.37;80.47
64908;BME280;69061;52.236;5.188;2023-12-20T10:33:57;101383.28;;;11.38;79.62
64908;BME280;69061;52.236;5.188;2023-12-20T10:36:25;101370.31;;;11.36;80.41
64908;BME280;69061;52.236;5.188;2023-12-20T10:38:55;101383.88;;;11.51;79.57
64908;BME280;69061;52.236;5.188;2023-12-20T10:41:25;101374.81;;;11.55;79.20
64908;BME280;69061;52.236;5.188;2023-12-20T10:43:54;101369.13;;;11.80;80.45
64908;BME280;69061;52.236;5.188;2023-12-20T10:46:22;101368.34;;;12.03;79.51
64908;BME280;69061;52.236;5.188;2023-12-20T10:48:50;101371.16;;;12.13;77.58
64908;BME280;69061;52.236;5.188;2023-12-20T10:51:18;101368.41;;;12.06;76.00
64908;BME280;69061;52.236;5.188;2023-12-20T10:53:46;101374.19;;;12.12;77.88
64908;BME280;69061;52.236;5.188;2023-12-20T10:56:16;101362.47;;;12.47;78.31
64908;BME280;69061;52.236;5.188;2023-12-20T10:58:43;101363.03;;;12.63;76.64
64908;BME280;69061;52.236;5.188;2023-12-20T11:01:12;101361.78;;;12.88;75.86
64908;BME280;69061;52.236;5.188;2023-12-20T11:03:43;101349.34;;;13.03;73.71
64908;BME280;69061;52.236;5.188;2023-12-20T11:06:16;101359.91;;;13.29;73.78
64908;BME280;69061;52.236;5.188;2023-12-20T11:08:49;101361.28;;;13.54;71.85
64908;BME280;69061;52.236;5.188;2023-12-20T11:11:25;101375.13;;;13.67;70.36
64908;BME280;69061;52.236;5.188;2023-12-20T11:13:57;101343.91;;;13.78;69.57
64908;BME280;69061;52.236;5.188;2023-12-20T11:16:24;101359.97;;;13.85;68.17
64908;BME280;69061;52.236;5.188;2023-12-20T11:18:51;101349.47;;;13.55;67.51
64908;BME280;69061;52.236;5.188;2023-12-20T11:21:18;101342.72;;;13.27;67.43
64908;BME280;69061;52.236;5.188;2023-12-20T11:23:45;101344.81;;;13.07;70.04
64908;BME280;69061;52.236;5.188;2023-12-20T11:26:15;101337.84;;;12.95;69.91
64908;BME280;69061;52.236;5.188;2023-12-20T11:28:43;101340.38;;;12.80;69.72
64908;BME280;69061;52.236;5.188;2023-12-20T11:31:14;101341.38;;;12.69;69.35
64908;BME280;69061;52.236;5.188;2023-12-20T11:33:40;101350.25;;;12.46;69.98
64908;BME280;69061;52.236;5.188;2023-12-20T11:36:13;101335.72;;;12.40;71.00
64908;BME280;69061;52.236;5.188;2023-12-20T11:38:53;101329.16;;;12.34;72.20
64908;BME280;69061;52.236;5.188;2023-12-20T11:41:22;101331.75;;;12.26;71.79
64908;BME280;69061;52.236;5.188;2023-12-20T11:43:53;101333.59;;;12.22;72.33
64908;BME280;69061;52.236;5.188;2023-12-20T11:46:20;101324.38;;;12.16;72.35
64908;BME280;69061;52.236;5.188;2023-12-20T11:48:47;101320.06;;;12.08;72.80
64908;BME280;69061;52.236;5.188;2023-12-20T11:51:14;101312.38;;;12.03;72.94
64908;BME280;69061;52.236;5.188;2023-12-20T11:53:41;101305.38;;;11.91;72.91
64908;BME280;69061;52.236;5.188;2023-12-20T11:56:08;101304.56;;;11.87;73.23
64908;BME280;69061;52.236;5.188;2023-12-20T11:58:36;101303.75;;;11.83;74.23
64908;BME280;69061;52.236;5.188;2023-12-20T12:01:04;101310.13;;;11.78;74.87
64908;BME280;69061;52.236;5.188;2023-12-20T12:03:33;101311.25;;;11.77;73.59
64908;BME280;69061;52.236;5.188;2023-12-20T12:05:59;101310.34;;;11.66;74.44
64908;BME280;69061;52.236;5.188;2023-12-20T12:08:27;101317.50;;;11.61;74.83
64908;BME280;69061;52.236;5.188;2023-12-20T12:10:54;101317.06;;;11.59;75.58
64908;BME280;69061;52.236;5.188;2023-12-20T12:13:20;101310.34;;;11.66;75.82
64908;BME280;69061;52.236;5.188;2023-12-20T12:15:47;101308.78;;;11.65;75.89
64908;BME280;69061;52.236;5.188;2023-12-20T12:18:17;101321.72;;;11.62;76.29
64908;BME280;69061;52.236;5.188;2023-12-20T12:20:43;101311.75;;;11.59;76.23
64908;BME280;69061;52.236;5.188;2023-12-20T12:23:11;101310.28;;;11.62;76.44
64908;BME280;69061;52.236;5.188;2023-12-20T12:25:37;101301.91;;;11.63;76.29
64908;BME280;69061;52.236;5.188;2023-12-20T12:28:05;101300.50;;;11.70;76.86
64908;BME280;69061;52.236;5.188;2023-12-20T12:30:32;101291.50;;;11.78;77.44
64908;BME280;69061;52.236;5.188;2023-12-20T12:32:58;101280.91;;;11.82;77.46
64908;BME280;69061;52.236;5.188;2023-12-20T12:35:27;101277.94;;;11.87;76.79
64908;BME280;69061;52.236;5.188;2023-12-20T12:37:53;101279.41;;;11.84;76.92
64908;BME280;69061;52.236;5.188;2023-12-20T12:40:21;101277.50;;;11.85;77.08
64908;BME280;69061;52.236;5.188;2023-12-20T12:42:48;101272.94;;;11.85;77.17
64908;BME280;69061;52.236;5.188;2023-12-20T12:45:15;101273.16;;;11.73;77.49
64908;BME280;69061;52.236;5.188;2023-12-20T12:47:41;101273.94;;;11.73;78.47
64908;BME280;69061;52.236;5.188;2023-12-20T12:50:08;101271.31;;;11.77;77.72
64908;BME280;69061;52.236;5.188;2023-12-20T12:52:36;101279.34;;;11.80;77.95
64908;BME280;69061;52.236;5.188;2023-12-20T12:55:05;101265.31;;;11.84;77.94
64908;BME280;69061;52.236;5.188;2023-12-20T12:57:32;101266.09;;;11.84;77.87